Time;durP1;ratioP1;P1;durP2;ratioP2;P2;SDS_P1;SDS_P2;PMS_P1;PMS_P2;Temp;Humidity;BMP_temperature;BMP_pressure;BME280_temperature;BME280_humidity;BME280_pressure;Samples;Min_cycle;Max_cycle;Signal;HPM_P1;HPM_P2
2022/04/08 00:00:24;;;;;;;6.00;1.17;;;;;;;;;;5013636;28;20049;-66
2022/04/08 00:02:52;;;;;;;3.95;1.20;;;;;;;;;;5013386;28;20053;-66
2022/04/08 00:05:19;;;;;;;5.10;1.02;;;;;;;;;;5013703;28;20050;-66
2022/04/08 00:07:45;;;;;;;4.75;1.00;;;;;;;;;;5013237;28;20061;-67
2022/04/08 00:10:13;;;;;;;6.10;1.00;;;;;;;;;;5013243;28;20123;-67
2022/04/08 00:12:39;;;;;;;5.28;1.45;;;;;;;;;;5013409;28;20084;-67
2022/04/08 00:15:06;;;;;;;8.05;1.10;;;;;;;;;;5013325;28;20046;-67
2022/04/08 00:17:33;;;;;;;5.70;1.58;;;;;;;;;;5013528;28;20054;-66
2022/04/08 00:20:00;;;;;;;5.90;1.08;;;;;;;;;;5013081;28;20520;-67
2022/04/08 00:22:27;;;;;;;4.20;0.80;;;;;;;;;;5013078;28;20116;-67
2022/04/08 00:24:54;;;;;;;7.20;1.40;;;;;;;;;;5013210;28;20058;-67
2022/04/08 00:27:20;;;;;;;6.45;1.17;;;;;;;;;;5013357;28;20052;-67
2022/04/08 00:29:47;;;;;;;6.25;0.90;;;;;;;;;;5013021;28;20060;-67
2022/04/08 00:32:14;;;;;;;7.55;1.20;;;;;;;;;;5012978;28;20425;-67
2022/04/08 00:34:40;;;;;;;6.78;0.95;;;;;;;;;;5012982;28;20041;-67
2022/04/08 00:37:07;;;;;;;5.57;1.10;;;;;;;;;;5013293;28;20046;-67
2022/04/08 00:39:34;;;;;;;3.25;0.85;;;;;;;;;;5013156;28;20061;-67
2022/04/08 00:42:01;;;;;;;5.55;0.80;;;;;;;;;;5012854;28;20046;-67
2022/04/08 00:44:29;;;;;;;2.78;0.90;;;;;;;;;;5012683;28;20501;-66
2022/04/08 00:46:55;;;;;;;7.40;1.38;;;;;;;;;;5012738;28;20050;-66
2022/04/08 00:49:22;;;;;;;6.13;1.27;;;;;;;;;;5012811;28;20049;-66
2022/04/08 00:51:49;;;;;;;4.22;0.90;;;;;;;;;;5012051;28;20456;-67
2022/04/08 00:54:16;;;;;;;5.97;1.48;;;;;;;;;;5011421;28;20489;-67
2022/04/08 00:56:43;;;;;;;7.13;1.23;;;;;;;;;;5011600;28;20104;-67
2022/04/08 00:59:09;;;;;;;3.50;1.00;;;;;;;;;;4995457;28;20468;-66
2022/04/08 01:01:36;;;;;;;4.55;0.73;;;;;;;;;;5011007;28;20050;-67
2022/04/08 01:04:03;;;;;;;6.53;1.23;;;;;;;;;;5012337;28;20046;-67
2022/04/08 01:06:30;;;;;;;3.53;0.70;;;;;;;;;;5012697;28;20115;-66
2022/04/08 01:08:56;;;;;;;10.32;1.33;;;;;;;;;;5012590;28;20496;-66
2022/04/08 01:11:23;;;;;;;4.60;1.20;;;;;;;;;;5012253;28;20058;-66
2022/04/08 01:13:51;;;;;;;6.15;0.95;;;;;;;;;;4994876;28;20048;-66
2022/04/08 01:16:19;;;;;;;7.40;1.48;;;;;;;;;;5012222;28;20052;-66
2022/04/08 01:18:46;;;;;;;3.67;0.80;;;;;;;;;;5012217;28;20053;-66
2022/04/08 01:21:12;;;;;;;8.65;1.80;;;;;;;;;;5012097;28;20054;-65
2022/04/08 01:23:39;;;;;;;5.25;1.60;;;;;;;;;;5012347;28;20045;-66
2022/04/08 01:26:06;;;;;;;2.92;1.02;;;;;;;;;;5010832;28;20050;-66
2022/04/08 01:28:33;;;;;;;7.75;1.30;;;;;;;;;;5011960;28;20527;-66
2022/04/08 01:31:00;;;;;;;10.45;1.25;;;;;;;;;;5011713;28;20394;-66
2022/04/08 01:33:27;;;;;;;5.45;1.95;;;;;;;;;;5011943;28;20057;-66
2022/04/08 01:35:54;;;;;;;5.63;1.33;;;;;;;;;;5012141;28;20058;-66
2022/04/08 01:38:20;;;;;;;3.90;0.80;;;;;;;;;;5012244;28;20060;-66
2022/04/08 01:40:47;;;;;;;5.88;1.20;;;;;;;;;;5011717;28;20046;-67
2022/04/08 01:43:13;;;;;;;6.60;1.20;;;;;;;;;;5011681;28;20049;-66
2022/04/08 01:45:40;;;;;;;4.90;0.77;;;;;;;;;;5012008;28;20056;-66
2022/04/08 01:48:08;;;;;;;4.97;1.00;;;;;;;;;;5011662;28;20054;-66
2022/04/08 01:50:34;;;;;;;3.83;1.08;;;;;;;;;;5011817;28;20049;-66
2022/04/08 01:53:01;;;;;;;7.45;1.60;;;;;;;;;;5011886;28;20057;-66
2022/04/08 01:55:27;;;;;;;3.53;0.65;;;;;;;;;;5012068;28;20094;-66
2022/04/08 01:57:54;;;;;;;6.03;2.00;;;;;;;;;;5011933;28;20053;-66
2022/04/08 02:00:21;;;;;;;5.88;1.73;;;;;;;;;;5011578;28;20057;-67
2022/04/08 02:02:47;;;;;;;7.75;1.30;;;;;;;;;;5011753;28;20420;-66
2022/04/08 02:05:14;;;;;;;3.72;0.88;;;;;;;;;;5015443;28;20042;-67
2022/04/08 02:07:41;;;;;;;3.75;1.08;;;;;;;;;;5016197;28;20052;-67
2022/04/08 02:10:08;;;;;;;4.50;1.08;;;;;;;;;;5015822;28;20046;-67
2022/04/08 02:12:34;;;;;;;4.97;1.20;;;;;;;;;;5015426;28;20057;-67
2022/04/08 02:15:01;;;;;;;5.60;1.10;;;;;;;;;;5015627;28;20046;-67
2022/04/08 02:17:30;;;;;;;7.88;1.30;;;;;;;;;;5015567;28;20049;-67
2022/04/08 02:19:57;;;;;;;5.13;0.80;;;;;;;;;;5014637;28;20060;-67
2022/04/08 02:22:26;;;;;;;7.35;1.40;;;;;;;;;;5015413;28;20065;-68
2022/04/08 02:24:53;;;;;;;4.68;1.00;;;;;;;;;;5014217;28;20054;-67
2022/04/08 02:27:23;;;;;;;5.22;1.40;;;;;;;;;;5015528;28;20137;-67
2022/04/08 02:29:50;;;;;;;4.38;1.10;;;;;;;;;;5015479;28;20050;-66
2022/04/08 02:32:16;;;;;;;5.60;1.05;;;;;;;;;;5015510;28;20049;-67
2022/04/08 02:34:43;;;;;;;4.60;0.77;;;;;;;;;;5015318;28;20050;-66
2022/04/08 02:37:10;;;;;;;5.32;1.20;;;;;;;;;;5032498;23;20026;-66
2022/04/08 02:39:36;;;;;;;2.85;1.00;;;;;;;;;;4995478;28;20061;-66
2022/04/08 02:42:03;;;;;;;3.53;0.77;;;;;;;;;;4995298;28;20058;-66
2022/04/08 02:44:30;;;;;;;4.72;1.50;;;;;;;;;;4995646;28;20057;-67
2022/04/08 02:46:58;;;;;;;2.67;0.90;;;;;;;;;;4995638;28;20448;-65
2022/04/08 02:49:25;;;;;;;3.70;1.00;;;;;;;;;;4995749;28;20054;-65
2022/04/08 02:51:52;;;;;;;4.13;0.95;;;;;;;;;;4995264;28;20050;-65
2022/04/08 02:54:19;;;;;;;5.20;1.20;;;;;;;;;;4995323;28;20098;-65
2022/04/08 02:56:45;;;;;;;7.72;1.05;;;;;;;;;;4995209;28;20058;-65
2022/04/08 02:59:12;;;;;;;5.05;1.10;;;;;;;;;;4995599;28;20428;-65
2022/04/08 03:01:39;;;;;;;6.68;1.42;;;;;;;;;;4995167;28;20050;-65
2022/04/08 03:04:09;;;;;;;3.95;1.23;;;;;;;;;;4995228;28;20101;-65
2022/04/08 03:06:36;;;;;;;5.30;1.00;;;;;;;;;;4995077;28;20061;-65
2022/04/08 03:09:03;;;;;;;4.47;1.48;;;;;;;;;;4995339;28;20061;-65
2022/04/08 03:11:30;;;;;;;4.22;1.02;;;;;;;;;;4995152;28;20046;-66
2022/04/08 03:13:59;;;;;;;4.53;1.00;;;;;;;;;;4994987;28;20049;-65
2022/04/08 03:16:26;;;;;;;4.03;1.38;;;;;;;;;;4994794;28;20059;-65
2022/04/08 03:18:53;;;;;;;6.75;1.17;;;;;;;;;;4994518;28;20054;-66
2022/04/08 03:21:19;;;;;;;4.53;0.98;;;;;;;;;;4994667;28;20050;-65
2022/04/08 03:23:47;;;;;;;4.20;1.45;;;;;;;;;;4994367;28;20073;-66
2022/04/08 03:26:14;;;;;;;2.88;0.90;;;;;;;;;;4992971;28;20054;-67
2022/04/08 03:28:42;;;;;;;6.63;1.30;;;;;;;;;;4994626;28;20424;-67
2022/04/08 03:31:12;;;;;;;4.05;0.77;;;;;;;;;;4972833;28;20508;-67
2022/04/08 03:33:41;;;;;;;5.32;0.90;;;;;;;;;;4962885;28;20129;-68
2022/04/08 03:36:09;;;;;;;4.10;1.05;;;;;;;;;;4995702;28;20057;-68
2022/04/08 03:38:39;;;;;;;5.80;1.38;;;;;;;;;;4981610;28;20054;-68
2022/04/08 03:41:06;;;;;;;4.68;1.10;;;;;;;;;;4980484;28;20058;-68
2022/04/08 03:43:34;;;;;;;5.80;1.30;;;;;;;;;;4980907;28;20050;-68
2022/04/08 03:46:01;;;;;;;6.35;1.20;;;;;;;;;;4981556;28;20575;-68
2022/04/08 03:48:29;;;;;;;7.72;1.65;;;;;;;;;;4980188;28;20051;-68
2022/04/08 03:50:55;;;;;;;7.25;1.33;;;;;;;;;;4982950;28;20050;-67
2022/04/08 03:53:23;;;;;;;3.72;0.98;;;;;;;;;;4978953;28;20069;-67
2022/04/08 03:55:49;;;;;;;3.67;0.90;;;;;;;;;;4982217;28;20054;-67
2022/04/08 03:58:17;;;;;;;6.03;1.52;;;;;;;;;;4978800;28;20046;-66
2022/04/08 04:00:46;;;;;;;6.72;0.82;;;;;;;;;;4979745;28;20046;-68
2022/04/08 04:03:13;;;;;;;4.72;1.17;;;;;;;;;;4979821;28;20061;-66
2022/04/08 04:05:43;;;;;;;6.03;0.80;;;;;;;;;;4982883;28;20089;-66
2022/04/08 04:08:15;;;;;;;11.63;2.20;;;;;;;;;;4980930;28;20101;-68
2022/04/08 04:10:42;;;;;;;5.05;0.88;;;;;;;;;;4979275;28;20065;-67
2022/04/08 04:13:09;;;;;;;3.15;1.30;;;;;;;;;;4980662;28;20497;-68
2022/04/08 04:15:36;;;;;;;5.80;0.95;;;;;;;;;;4979970;28;20047;-69
2022/04/08 04:18:04;;;;;;;5.80;1.13;;;;;;;;;;4980299;28;20476;-69
2022/04/08 04:20:31;;;;;;;3.38;1.02;;;;;;;;;;4979103;28;20089;-69
2022/04/08 04:22:58;;;;;;;5.25;1.05;;;;;;;;;;4980616;28;20563;-69
2022/04/08 04:25:26;;;;;;;9.40;1.35;;;;;;;;;;4978846;28;20052;-68
2022/04/08 04:27:53;;;;;;;3.67;1.23;;;;;;;;;;4986932;28;20054;-69
2022/04/08 04:30:19;;;;;;;4.45;0.95;;;;;;;;;;4979227;28;20129;-69
2022/04/08 04:32:46;;;;;;;3.95;1.10;;;;;;;;;;4980389;28;20065;-69
2022/04/08 04:35:13;;;;;;;10.57;1.30;;;;;;;;;;4979494;28;20496;-69
2022/04/08 04:37:43;;;;;;;6.25;1.15;;;;;;;;;;4979499;28;20058;-69
2022/04/08 04:40:10;;;;;;;6.15;1.15;;;;;;;;;;4979750;28;20582;-69
2022/04/08 04:42:37;;;;;;;4.93;0.88;;;;;;;;;;4979109;28;20417;-69
2022/04/08 04:45:04;;;;;;;4.93;1.05;;;;;;;;;;4980286;28;20049;-69
2022/04/08 04:47:30;;;;;;;7.82;0.98;;;;;;;;;;4978898;28;20058;-69
2022/04/08 04:49:57;;;;;;;4.38;0.90;;;;;;;;;;4981213;28;20049;-70
2022/04/08 04:52:24;;;;;;;10.68;1.55;;;;;;;;;;4977212;28;20069;-69
2022/04/08 04:54:50;;;;;;;5.20;0.85;;;;;;;;;;4982710;28;20046;-69
2022/04/08 04:57:18;;;;;;;7.25;1.10;;;;;;;;;;4980531;28;20047;-69
2022/04/08 04:59:44;;;;;;;4.40;0.93;;;;;;;;;;4979332;28;20051;-69
2022/04/08 05:02:11;;;;;;;6.75;1.23;;;;;;;;;;4978571;28;20050;-69
2022/04/08 05:04:38;;;;;;;9.90;1.90;;;;;;;;;;4980326;28;20587;-69
2022/04/08 05:07:04;;;;;;;5.68;1.70;;;;;;;;;;4978558;28;20062;-69
2022/04/08 05:09:32;;;;;;;5.57;2.15;;;;;;;;;;4983061;28;20056;-69
2022/04/08 05:11:58;;;;;;;8.65;1.40;;;;;;;;;;4978078;28;20046;-69
2022/04/08 05:14:25;;;;;;;5.13;1.10;;;;;;;;;;4979655;28;20043;-69
2022/04/08 05:16:52;;;;;;;7.47;1.33;;;;;;;;;;4979016;28;20320;-69
2022/04/08 05:19:18;;;;;;;6.70;0.98;;;;;;;;;;4979312;28;20046;-69
2022/04/08 05:21:45;;;;;;;5.95;1.08;;;;;;;;;;4979510;28;20050;-69
2022/04/08 05:24:12;;;;;;;4.97;1.35;;;;;;;;;;4979263;28;20121;-69
2022/04/08 05:26:39;;;;;;;6.65;1.27;;;;;;;;;;4978819;28;20135;-70
2022/04/08 05:29:06;;;;;;;8.43;1.15;;;;;;;;;;4975802;28;20129;-71
2022/04/08 05:31:33;;;;;;;6.07;1.40;;;;;;;;;;4980913;28;20434;-71
2022/04/08 05:33:59;;;;;;;7.00;1.80;;;;;;;;;;4980775;28;20497;-71
2022/04/08 05:36:26;;;;;;;6.75;2.17;;;;;;;;;;4983221;28;20086;-72
2022/04/08 05:38:53;;;;;;;5.80;1.60;;;;;;;;;;4976647;28;20051;-72
2022/04/08 05:41:19;;;;;;;8.15;1.52;;;;;;;;;;4994217;28;20069;-71
2022/04/08 05:43:46;;;;;;;7.82;1.58;;;;;;;;;;4978144;28;20051;-71
2022/04/08 05:46:14;;;;;;;8.05;1.15;;;;;;;;;;4979825;28;20049;-73
2022/04/08 05:48:40;;;;;;;7.07;1.50;;;;;;;;;;4993170;28;20055;-72
2022/04/08 05:51:07;;;;;;;5.68;1.30;;;;;;;;;;4991328;28;20050;-72
2022/04/08 05:53:34;;;;;;;5.63;1.33;;;;;;;;;;4981529;28;20409;-72
2022/04/08 05:56:05;;;;;;;6.05;1.83;;;;;;;;;;4981141;28;20100;-73
2022/04/08 05:58:32;;;;;;;10.75;2.78;;;;;;;;;;4994581;28;20508;-72
2022/04/08 06:00:59;;;;;;;9.07;2.97;;;;;;;;;;4977911;28;20051;-71
2022/04/08 06:03:26;;;;;;;10.48;2.65;;;;;;;;;;4979522;28;20054;-72
2022/04/08 06:05:53;;;;;;;13.73;3.85;;;;;;;;;;4976304;28;20062;-71
2022/04/08 06:08:20;;;;;;;5.22;1.52;;;;;;;;;;4977017;28;20130;-71
2022/04/08 06:10:47;;;;;;;8.35;1.40;;;;;;;;;;4979592;28;20062;-71
2022/04/08 06:13:13;;;;;;;5.95;0.98;;;;;;;;;;4977265;28;20504;-71
2022/04/08 06:15:40;;;;;;;7.45;1.33;;;;;;;;;;4977828;28;20450;-73
2022/04/08 06:18:09;;;;;;;6.03;1.40;;;;;;;;;;4979040;28;20073;-71
2022/04/08 06:20:36;;;;;;;4.97;1.63;;;;;;;;;;4979349;28;20062;-69
2022/04/08 06:23:03;;;;;;;4.32;1.25;;;;;;;;;;4980134;28;20070;-69
2022/04/08 06:25:29;;;;;;;4.55;1.58;;;;;;;;;;4985843;28;20409;-68
2022/04/08 06:27:58;;;;;;;9.35;1.55;;;;;;;;;;4968973;28;20069;-67
2022/04/08 06:30:25;;;;;;;4.85;0.90;;;;;;;;;;4978274;28;20101;-67
2022/04/08 06:32:52;;;;;;;3.97;1.08;;;;;;;;;;4989167;28;20050;-71
2022/04/08 06:35:18;;;;;;;5.22;1.45;;;;;;;;;;4977557;28;20045;-67
2022/04/08 06:37:45;;;;;;;5.28;0.95;;;;;;;;;;4977155;28;20050;-68
2022/04/08 06:40:12;;;;;;;8.02;1.80;;;;;;;;;;4975677;28;20061;-67
2022/04/08 06:42:39;;;;;;;5.50;1.33;;;;;;;;;;4977209;28;20493;-67
2022/04/08 06:45:07;;;;;;;6.00;1.42;;;;;;;;;;4974978;28;20047;-68
2022/04/08 06:47:45;;;;;;;8.38;1.70;;;;;;;;;;4978097;28;20149;-67
2022/04/08 06:50:12;;;;;;;3.30;1.00;;;;;;;;;;4982428;28;20069;-67
2022/04/08 06:52:38;;;;;;;4.25;1.00;;;;;;;;;;4978104;28;20053;-67
2022/04/08 06:55:06;;;;;;;7.07;1.63;;;;;;;;;;4980858;28;20046;-67
2022/04/08 06:57:33;;;;;;;2.17;0.98;;;;;;;;;;4978301;28;20062;-67
2022/04/08 07:00:00;;;;;;;6.40;0.98;;;;;;;;;;4979101;28;20046;-67
2022/04/08 07:02:26;;;;;;;5.05;1.35;;;;;;;;;;4978752;28;20053;-67
2022/04/08 07:04:58;;;;;;;3.90;1.42;;;;;;;;;;4982260;28;20357;-67
2022/04/08 07:07:31;;;;;;;7.18;1.33;;;;;;;;;;4979121;28;20047;-68
2022/04/08 07:09:58;;;;;;;;;;;;;;;;;;4979601;28;20065;-67
2022/04/08 07:12:25;;;;;;;5.78;0.90;;;;;;;;;;4979513;28;19921;-67
2022/04/08 07:14:52;;;;;;;5.35;1.10;;;;;;;;;;4981719;28;20527;-67
2022/04/08 07:17:30;;;;;;;3.80;1.02;;;;;;;;;;4980782;28;20615;-67
2022/04/08 07:20:15;;;;;;;;;;;;;;;;;;4981282;28;20069;-67
2022/04/08 07:22:43;;;;;;;5.65;1.17;;;;;;;;;;4978973;28;19984;-68
2022/04/08 07:25:10;;;;;;;8.27;1.98;;;;;;;;;;4979715;28;20046;-69
2022/04/08 07:27:51;;;;;;;7.15;0.80;;;;;;;;;;4980730;28;20067;-68
2022/04/08 07:30:20;;;;;;;3.30;1.00;;;;;;;;;;4983801;28;20043;-67
2022/04/08 07:32:54;;;;;;;6.05;1.00;;;;;;;;;;4977755;28;20053;-66
2022/04/08 07:35:23;;;;;;;6.18;0.90;;;;;;;;;;4977518;28;20126;-68
2022/04/08 07:37:50;;;;;;;4.43;1.38;;;;;;;;;;4978855;28;20077;-68
2022/04/08 07:40:19;;;;;;;7.40;1.20;;;;;;;;;;4978216;28;20074;-69
2022/04/08 07:42:46;;;;;;;2.90;1.15;;;;;;;;;;4982372;28;20073;-68
2022/04/08 07:45:14;;;;;;;3.10;0.80;;;;;;;;;;4978696;28;20051;-68
2022/04/08 07:47:41;;;;;;;6.20;1.25;;;;;;;;;;4980278;28;20137;-68
2022/04/08 07:50:11;;;;;;;6.72;0.90;;;;;;;;;;4978186;28;20182;-67
2022/04/08 07:52:39;;;;;;;8.55;1.27;;;;;;;;;;4977242;28;20138;-67
2022/04/08 07:55:10;;;;;;;4.63;0.82;;;;;;;;;;4982496;28;20053;-68
2022/04/08 07:57:48;;;;;;;10.75;1.38;;;;;;;;;;4982101;28;20055;-68
2022/04/08 08:00:17;;;;;;;1.67;1.00;;;;;;;;;;4982792;28;20413;-68
2022/04/08 08:02:44;;;;;;;4.05;0.70;;;;;;;;;;4980089;28;20078;-67
2022/04/08 08:05:12;;;;;;;1.35;0.57;;;;;;;;;;4979256;28;20043;-68
2022/04/08 08:07:46;;;;;;;2.90;0.80;;;;;;;;;;4981284;28;20509;-67
2022/04/08 08:10:15;;;;;;;1.55;0.77;;;;;;;;;;4982802;28;20050;-69
2022/04/08 08:12:42;;;;;;;3.90;1.27;;;;;;;;;;4982611;28;20120;-68
2022/04/08 08:15:10;;;;;;;3.65;0.70;;;;;;;;;;4980059;28;20054;-68
2022/04/08 08:17:38;;;;;;;2.45;0.85;;;;;;;;;;4956356;28;20330;-68
2022/04/08 08:20:09;;;;;;;2.60;0.95;;;;;;;;;;4983058;28;20053;-71
2022/04/08 08:22:36;;;;;;;2.63;0.75;;;;;;;;;;4980620;28;20050;-71
2022/04/08 08:25:04;;;;;;;1.92;0.45;;;;;;;;;;4982156;28;20046;-74
2022/04/08 08:27:38;;;;;;;0.85;0.57;;;;;;;;;;4980510;28;20055;-70
2022/04/08 08:30:06;;;;;;;3.53;0.80;;;;;;;;;;4982220;28;20050;-69
2022/04/08 08:32:33;;;;;;;3.80;1.00;;;;;;;;;;4979499;28;20093;-68
2022/04/08 08:35:01;;;;;;;3.92;0.80;;;;;;;;;;4976666;28;20046;-72
2022/04/08 08:37:27;;;;;;;3.22;0.80;;;;;;;;;;4985731;28;20433;-72
2022/04/08 08:39:56;;;;;;;4.45;1.40;;;;;;;;;;5030331;23;20038;-73
2022/04/08 08:42:24;;;;;;;1.80;0.85;;;;;;;;;;4999824;28;20476;-73
2022/04/08 08:44:51;;;;;;;4.93;1.00;;;;;;;;;;4980577;28;20531;-67
2022/04/08 08:47:18;;;;;;;2.90;1.02;;;;;;;;;;5002505;28;20042;-66
2022/04/08 08:49:52;;;;;;;2.60;1.00;;;;;;;;;;4998531;28;20055;-74
2022/04/08 08:52:19;;;;;;;3.63;0.93;;;;;;;;;;4992706;28;20046;-74
2022/04/08 08:54:46;;;;;;;2.60;1.10;;;;;;;;;;4998759;28;20060;-73
2022/04/08 08:57:20;;;;;;;2.42;0.70;;;;;;;;;;4998837;28;20054;-70
2022/04/08 08:59:47;;;;;;;3.15;0.95;;;;;;;;;;5001734;28;20051;-69
2022/04/08 09:02:18;;;;;;;5.10;1.23;;;;;;;;;;4997871;28;20503;-70
2022/04/08 09:04:45;;;;;;;2.13;0.80;;;;;;;;;;4999347;28;20050;-70
2022/04/08 09:07:25;;;;;;;2.33;0.70;;;;;;;;;;4997902;28;20050;-70
2022/04/08 09:09:53;;;;;;;1.42;0.65;;;;;;;;;;5002048;28;20053;-70
2022/04/08 09:12:23;;;;;;;2.60;0.75;;;;;;;;;;4999127;28;20100;-71
2022/04/08 09:14:55;;;;;;;3.42;1.00;;;;;;;;;;4997544;28;20516;-67
2022/04/08 09:17:24;;;;;;;0.75;0.75;;;;;;;;;;5003981;28;20046;-72
2022/04/08 09:19:54;;;;;;;1.42;0.88;;;;;;;;;;4996039;28;20471;-72
2022/04/08 09:22:21;;;;;;;3.05;1.35;;;;;;;;;;4999001;28;20136;-71
2022/04/08 09:24:48;;;;;;;1.50;0.85;;;;;;;;;;4997164;28;20050;-71
2022/04/08 09:27:15;;;;;;;3.58;1.25;;;;;;;;;;4998807;28;20049;-72
2022/04/08 09:29:43;;;;;;;1.38;0.70;;;;;;;;;;4998942;28;20045;-69
2022/04/08 09:32:30;;;;;;;1.65;0.90;;;;;;;;;;5004542;28;20113;-69
2022/04/08 09:34:57;;;;;;;1.52;0.95;;;;;;;;;;5002731;28;20060;-71
2022/04/08 09:37:24;;;;;;;1.77;0.82;;;;;;;;;;5007717;28;20050;-71
2022/04/08 09:39:52;;;;;;;2.58;0.90;;;;;;;;;;5004695;28;20045;-72
2022/04/08 09:42:19;;;;;;;2.97;0.98;;;;;;;;;;4995120;28;20053;-73
2022/04/08 09:44:45;;;;;;;2.40;0.95;;;;;;;;;;4989800;28;20073;-72
2022/04/08 09:47:12;;;;;;;4.13;1.10;;;;;;;;;;5001423;28;20046;-72
2022/04/08 09:49:39;;;;;;;2.88;0.73;;;;;;;;;;4997000;28;20050;-71
2022/04/08 09:52:07;;;;;;;1.60;0.80;;;;;;;;;;4996513;28;20042;-71
2022/04/08 09:54:34;;;;;;;2.65;0.80;;;;;;;;;;4997709;28;20436;-67
2022/04/08 09:57:01;;;;;;;2.90;1.08;;;;;;;;;;5001344;28;20047;-66
2022/04/08 09:59:31;;;;;;;5.40;1.98;;;;;;;;;;5001027;28;20402;-66
2022/04/08 10:02:18;;;;;;;3.97;1.33;;;;;;;;;;4999219;28;20096;-66
2022/04/08 10:04:50;;;;;;;2.50;1.00;;;;;;;;;;4997882;28;20443;-66
2022/04/08 10:07:20;;;;;;;7.30;1.63;;;;;;;;;;4998270;28;20050;-65
2022/04/08 10:10:16;;;;;;;2.80;1.05;;;;;;;;;;5001245;28;20085;-66
2022/04/08 10:13:04;;;;;;;3.00;1.10;;;;;;;;;;4998955;28;20089;-65
2022/04/08 10:15:42;;;;;;;2.65;1.20;;;;;;;;;;5004380;28;20113;-66
2022/04/08 10:18:10;;;;;;;1.85;1.17;;;;;;;;;;5003304;28;20406;-64
2022/04/08 10:20:38;;;;;;;2.75;0.80;;;;;;;;;;4998954;28;20064;-64
2022/04/08 10:23:18;;;;;;;1.38;1.00;;;;;;;;;;5003134;28;20074;-65
2022/04/08 10:25:51;;;;;;;3.17;0.60;;;;;;;;;;5006311;28;20050;-66
2022/04/08 10:28:34;;;;;;;2.90;0.52;;;;;;;;;;5003739;28;20132;-65
2022/04/08 10:31:20;;;;;;;3.10;1.35;;;;;;;;;;5004598;28;20112;-66
2022/04/08 10:34:01;;;;;;;1.60;1.50;;;;;;;;;;5007985;28;20042;-67
2022/04/08 10:36:41;;;;;;;2.60;1.20;;;;;;;;;;5002321;28;20046;-66
2022/04/08 10:39:09;;;;;;;2.03;1.65;;;;;;;;;;4999213;28;20493;-67
2022/04/08 10:41:52;;;;;;;2.45;1.30;;;;;;;;;;5002628;28;20512;-66
2022/04/08 10:44:35;;;;;;;2.25;1.40;;;;;;;;;;5005872;28;20053;-67
2022/04/08 10:47:11;;;;;;;;;;;;;;;;;;5002912;28;20052;-68
2022/04/08 10:49:52;;;;;;;1.02;0.93;;;;;;;;;;5003879;28;19948;-67
2022/04/08 10:52:42;;;;;;;3.30;0.85;;;;;;;;;;5002271;28;20096;-68
2022/04/08 10:55:11;;;;;;;3.08;0.90;;;;;;;;;;4994546;28;20046;-68
2022/04/08 10:57:38;;;;;;;0.70;0.60;;;;;;;;;;4999755;28;20086;-68
2022/04/08 11:00:14;;;;;;;2.58;1.00;;;;;;;;;;5001346;28;20088;-68
2022/04/08 11:02:43;;;;;;;1.45;0.55;;;;;;;;;;5001269;28;20046;-67
2022/04/08 11:05:18;;;;;;;1.85;1.23;;;;;;;;;;5000705;28;20465;-67
2022/04/08 11:07:47;;;;;;;3.38;0.63;;;;;;;;;;5004215;28;20100;-67
2022/04/08 11:10:18;;;;;;;1.85;0.65;;;;;;;;;;4999884;28;20054;-68
2022/04/08 11:12:47;;;;;;;2.33;0.90;;;;;;;;;;5001381;28;20054;-67
2022/04/08 11:15:16;;;;;;;1.90;0.77;;;;;;;;;;5000818;28;20054;-68
2022/04/08 11:17:44;;;;;;;0.90;0.60;;;;;;;;;;5001943;28;20532;-67
2022/04/08 11:20:13;;;;;;;1.50;0.80;;;;;;;;;;4999652;28;20052;-66
2022/04/08 11:22:48;;;;;;;2.35;0.90;;;;;;;;;;4998307;28;20053;-67
2022/04/08 11:25:22;;;;;;;3.70;1.10;;;;;;;;;;5001434;28;20065;-73
2022/04/08 11:28:01;;;;;;;2.88;0.93;;;;;;;;;;5020351;28;20038;-72
2022/04/08 11:30:29;;;;;;;1.65;1.00;;;;;;;;;;5001588;28;20432;-75
2022/04/08 11:32:57;;;;;;;3.22;1.80;;;;;;;;;;4994606;28;20057;-69
2022/04/08 11:35:28;;;;;;;4.40;1.73;;;;;;;;;;5002958;28;20065;-74
2022/04/08 11:37:55;;;;;;;1.23;0.73;;;;;;;;;;5003183;28;20076;-72
2022/04/08 11:40:22;;;;;;;2.45;0.85;;;;;;;;;;5005625;28;20050;-72
2022/04/08 11:42:49;;;;;;;2.10;0.80;;;;;;;;;;4999088;28;20073;-72
2022/04/08 11:45:16;;;;;;;0.93;0.85;;;;;;;;;;5003703;28;20525;-74
2022/04/08 11:47:47;;;;;;;1.35;0.85;;;;;;;;;;4983077;28;20046;-73
2022/04/08 11:50:24;;;;;;;3.55;1.60;;;;;;;;;;5014017;28;20112;-73
2022/04/08 11:52:52;;;;;;;2.08;1.10;;;;;;;;;;4999406;28;20045;-75
2022/04/08 11:55:26;;;;;;;3.80;0.80;;;;;;;;;;4999100;28;20053;-76
2022/04/08 11:57:53;;;;;;;2.42;1.15;;;;;;;;;;4999827;28;20046;-71
2022/04/08 12:00:30;;;;;;;1.05;0.70;;;;;;;;;;4998250;28;20053;-73
2022/04/08 12:02:58;;;;;;;2.05;0.40;;;;;;;;;;4985322;28;20050;-73
2022/04/08 12:05:27;;;;;;;1.55;0.50;;;;;;;;;;5000880;28;20144;-71
2022/04/08 12:08:03;;;;;;;0.32;0.30;;;;;;;;;;5005117;28;20069;-74
2022/04/08 12:10:30;;;;;;;2.83;1.25;;;;;;;;;;4983612;28;20050;-71
2022/04/08 12:13:00;;;;;;;0.40;0.40;;;;;;;;;;4999054;28;20054;-76
2022/04/08 12:15:27;;;;;;;0.77;0.50;;;;;;;;;;5014025;28;20563;-71
2022/04/08 12:17:55;;;;;;;0.80;0.50;;;;;;;;;;5000858;28;20414;-71
2022/04/08 12:20:22;;;;;;;1.50;1.00;;;;;;;;;;4991977;28;20046;-72
2022/04/08 12:22:52;;;;;;;1.20;0.80;;;;;;;;;;5000731;28;20054;-71
2022/04/08 12:25:19;;;;;;;1.35;1.08;;;;;;;;;;5001968;28;20559;-70
2022/04/08 12:27:57;;;;;;;1.08;0.60;;;;;;;;;;5001599;28;20054;-71
2022/04/08 12:30:40;;;;;;;1.23;0.70;;;;;;;;;;5002757;28;20050;-73
2022/04/08 12:33:13;;;;;;;1.00;0.90;;;;;;;;;;4997902;28;20054;-74
2022/04/08 12:35:40;;;;;;;2.85;1.40;;;;;;;;;;4999254;28;20056;-71
2022/04/08 12:38:07;;;;;;;1.50;0.70;;;;;;;;;;4998596;28;20516;-69
2022/04/08 12:40:34;;;;;;;1.45;0.90;;;;;;;;;;4999926;28;20061;-73
2022/04/08 12:43:03;;;;;;;1.52;0.80;;;;;;;;;;4999027;28;20054;-69
2022/04/08 12:45:30;;;;;;;2.45;1.40;;;;;;;;;;5002978;28;20050;-68
2022/04/08 12:47:57;;;;;;;1.75;1.20;;;;;;;;;;4998914;28;20050;-68
2022/04/08 12:50:23;;;;;;;2.17;1.40;;;;;;;;;;4998566;28;20054;-68
2022/04/08 12:52:51;;;;;;;1.65;0.90;;;;;;;;;;5002373;28;20049;-68
2022/04/08 12:55:18;;;;;;;2.92;2.45;;;;;;;;;;4998254;28;20050;-68
2022/04/08 12:57:48;;;;;;;6.15;3.67;;;;;;;;;;4998540;28;20042;-68
2022/04/08 13:00:23;;;;;;;1.60;1.50;;;;;;;;;;4998576;28;20043;-68
2022/04/08 13:02:49;;;;;;;1.33;1.00;;;;;;;;;;4997412;28;20054;-68
2022/04/08 13:05:16;;;;;;;0.60;0.60;;;;;;;;;;4998492;28;20070;-68
2022/04/08 13:07:43;;;;;;;1.10;0.90;;;;;;;;;;4999180;28;20505;-68
2022/04/08 13:10:10;;;;;;;1.23;0.77;;;;;;;;;;4998829;28;20063;-68
2022/04/08 13:12:37;;;;;;;2.00;0.90;;;;;;;;;;5001469;28;20066;-68
2022/04/08 13:15:05;;;;;;;0.90;0.90;;;;;;;;;;5006567;28;20046;-68
2022/04/08 13:17:32;;;;;;;1.95;1.33;;;;;;;;;;5001190;28;20046;-68
2022/04/08 13:19:59;;;;;;;1.92;0.90;;;;;;;;;;5001299;28;20064;-68
2022/04/08 13:22:25;;;;;;;3.15;1.38;;;;;;;;;;4997261;28;20424;-68
2022/04/08 13:24:52;;;;;;;1.15;1.05;;;;;;;;;;4997664;28;20054;-67
2022/04/08 13:27:19;;;;;;;1.33;1.23;;;;;;;;;;5001078;28;20042;-67
2022/04/08 13:29:48;;;;;;;1.90;1.40;;;;;;;;;;4997447;28;20064;-67
2022/04/08 13:32:16;;;;;;;2.10;1.50;;;;;;;;;;4997625;28;20054;-67
2022/04/08 13:34:42;;;;;;;3.65;1.98;;;;;;;;;;4999763;28;20100;-67
2022/04/08 13:37:13;;;;;;;2.15;1.80;;;;;;;;;;4998314;28;20056;-67
2022/04/08 13:39:40;;;;;;;2.65;1.80;;;;;;;;;;4998143;28;20045;-67
2022/04/08 13:42:07;;;;;;;2.55;1.75;;;;;;;;;;4998816;28;20054;-68
2022/04/08 13:44:34;;;;;;;2.25;1.90;;;;;;;;;;4997869;28;20058;-67
2022/04/08 13:47:02;;;;;;;2.78;2.00;;;;;;;;;;4999071;28;20615;-67
2022/04/08 13:49:28;;;;;;;2.55;1.60;;;;;;;;;;4997455;28;20053;-67
2022/04/08 13:51:55;;;;;;;4.22;2.33;;;;;;;;;;4999856;28;20050;-68
2022/04/08 13:54:22;;;;;;;4.47;2.25;;;;;;;;;;4997092;28;20050;-68
2022/04/08 13:56:49;;;;;;;2.30;1.90;;;;;;;;;;4999345;28;20516;-67
2022/04/08 13:59:15;;;;;;;1.70;1.55;;;;;;;;;;4999116;28;20050;-68
2022/04/08 14:01:42;;;;;;;3.38;1.70;;;;;;;;;;5007076;28;20054;-68
2022/04/08 14:04:10;;;;;;;3.40;1.98;;;;;;;;;;5000262;28;20050;-67
2022/04/08 14:06:37;;;;;;;2.17;1.65;;;;;;;;;;4995592;28;20046;-67
2022/04/08 14:09:05;;;;;;;4.20;2.13;;;;;;;;;;5001273;28;20057;-67
2022/04/08 14:11:32;;;;;;;2.88;1.60;;;;;;;;;;5002712;28;20049;-68
2022/04/08 14:13:59;;;;;;;4.32;1.88;;;;;;;;;;5000916;28;20104;-67
2022/04/08 14:16:26;;;;;;;2.85;2.28;;;;;;;;;;5001908;28;20061;-68
2022/04/08 14:18:52;;;;;;;2.70;1.85;;;;;;;;;;5001605;28;20417;-67
2022/04/08 14:21:19;;;;;;;2.50;1.98;;;;;;;;;;5001293;28;20046;-67
2022/04/08 14:23:47;;;;;;;1.98;1.80;;;;;;;;;;5002645;28;20057;-67
2022/04/08 14:26:14;;;;;;;3.13;1.85;;;;;;;;;;5004111;28;20050;-68
2022/04/08 14:28:41;;;;;;;2.20;2.00;;;;;;;;;;5005050;28;20047;-68
2022/04/08 14:31:07;;;;;;;3.10;2.10;;;;;;;;;;5000492;28;20057;-68
2022/04/08 14:33:38;;;;;;;3.80;2.38;;;;;;;;;;5001872;28;20061;-68
2022/04/08 14:36:06;;;;;;;2.72;2.10;;;;;;;;;;5001336;28;20078;-68
2022/04/08 14:38:33;;;;;;;2.17;1.92;;;;;;;;;;5002755;28;20053;-68
2022/04/08 14:40:59;;;;;;;3.83;2.40;;;;;;;;;;5000474;28;20054;-68
2022/04/08 14:43:26;;;;;;;4.03;2.08;;;;;;;;;;5002462;28;20046;-68
2022/04/08 14:45:53;;;;;;;2.80;1.95;;;;;;;;;;4990414;28;20054;-73
2022/04/08 14:48:21;;;;;;;5.47;2.92;;;;;;;;;;5005198;28;20044;-73
2022/04/08 14:50:48;;;;;;;3.83;3.05;;;;;;;;;;4988775;28;20054;-72